Time;durP1;ratioP1;P1;durP2;ratioP2;P2;SDS_P1;SDS_P2;PMS_P1;PMS_P2;Temp;Humidity;BMP_temperature;BMP_pressure;BME280_temperature;BME280_humidity;BME280_pressure;Samples;Min_cycle;Max_cycle;Signal;HPM_P1;HPM_P2
2022/01/31 00:00:26;;;;;;;;;;;;;;;;;;5097720;28;19908;-87
2022/01/31 00:02:52;;;;;;;;;;;;;;;;;;5098010;28;19912;-88
2022/01/31 00:05:17;;;;;;;;;;;;;;;;;;5065807;28;19912;-88
2022/01/31 00:07:42;;;;;;;;;;;;;;;;;;5057546;28;20007;-88
2022/01/31 00:10:09;;;;;;;;;;;;;;;;;;5075416;28;19956;-88
2022/01/31 00:12:44;;;;;;;;;;;;;;;;;;5057495;28;19908;-88
2022/01/31 00:15:10;;;;;;;;;;;;;;;;;;5075333;28;20283;-89
2022/01/31 00:17:35;;;;;;;;;;;;;;;;;;5075320;28;19912;-88
2022/01/31 00:20:00;;;;;;;;;;;;;;;;;;5057524;28;19970;-88
2022/01/31 00:22:25;;;;;;;;;;;;;;;;;;5073994;28;20427;-88
2022/01/31 00:24:50;;;;;;;;;;;;;;;;;;5073945;28;20288;-87
2022/01/31 00:27:15;;;;;;;;;;;;;;;;;;5075069;28;19915;-88
2022/01/31 00:29:40;;;;;;;;;;;;;;;;;;5080006;28;19912;-88
2022/01/31 00:32:05;;;;;;;;;;;;;;;;;;5090673;28;20318;-88
2022/01/31 00:34:31;;;;;;;;;;;;;;;;;;5075333;28;19918;-88
2022/01/31 00:36:57;;;;;;;;;;;;;;;;;;5090682;28;19965;-88
2022/01/31 00:39:22;;;;;;;;;;;;;;;;;;5090211;28;20007;-88
2022/01/31 00:41:47;;;;;;;;;;;;;;;;;;5090462;28;20005;-88
2022/01/31 00:44:25;;;;;;;;;;;;;;;;;;5090440;28;19923;-89
2022/01/31 00:46:54;;;;;;;;;;;;;;;;;;5090190;28;19909;-88
2022/01/31 00:51:57;;;;;;;;;;;;;;;;;;5095333;28;19909;-88
2022/01/31 00:54:22;;;;;;;;;;;;;;;;;;5094929;28;19908;-88
2022/01/31 00:56:47;;;;;;;;;;;;;;;;;;5076691;28;19916;-88
2022/01/31 00:59:12;;;;;;;;;;;;;;;;;;5076654;28;19973;-88
2022/01/31 01:01:37;;;;;;;;;;;;;;;;;;5076612;28;19960;-88
2022/01/31 01:04:03;;;;;;;;;;;;;;;;;;5068750;28;19912;-89
2022/01/31 01:06:28;;;;;;;;;;;;;;;;;;5056521;28;19913;-88
2022/01/31 01:08:53;;;;;;;;;;;;;;;;;;5074168;28;19909;-88
2022/01/31 01:11:18;;;;;;;;;;;;;;;;;;5074383;28;19909;-88
2022/01/31 01:13:43;;;;;;;;;;;;;;;;;;5074184;28;19951;-88
2022/01/31 01:16:08;;;;;;;;;;;;;;;;;;5056003;28;19999;-88
2022/01/31 01:18:33;;;;;;;;;;;;;;;;;;5056347;28;20092;-88
2022/01/31 01:20:58;;;;;;;;;;;;;;;;;;5073266;28;20011;-88
2022/01/31 01:23:23;;;;;;;;;;;;;;;;;;5056071;28;19908;-89
2022/01/31 01:25:49;;;;;;;;;;;;;;;;;;5056039;28;20003;-89
2022/01/31 01:28:15;;;;;;;;;;;;;;;;;;5056015;28;19932;-89
2022/01/31 01:30:40;;;;;;;;;;;;;;;;;;5056082;28;20352;-89
2022/01/31 01:33:10;;;;;;;;;;;;;;;;;;5056362;28;19916;-89
2022/01/31 01:35:38;;;;;;;;;;;;;;;;;;5074207;28;19948;-88
2022/01/31 01:38:07;;;;;;;;;;;;;;;;;;5073276;28;20407;-89
2022/01/31 01:40:32;;;;;;;;;;;;;;;;;;5056393;28;19944;-89
2022/01/31 01:42:57;;;;;;;;;;;;;;;;;;5056429;28;19913;-89
2022/01/31 01:45:22;;;;;;;;;;;;;;;;;;5056223;28;19915;-89
2022/01/31 01:47:47;;;;;;;;;;;;;;;;;;5056085;28;19909;-89
2022/01/31 01:50:12;;;;;;;;;;;;;;;;;;5071326;28;19912;-89
2022/01/31 01:52:37;;;;;;;;;;;;;;;;;;5074538;28;19953;-89
2022/01/31 01:55:02;;;;;;;;;;;;;;;;;;5074459;28;20003;-89
2022/01/31 01:57:28;;;;;;;;;;;;;;;;;;5074520;28;19942;-89
2022/01/31 01:59:57;;;;;;;;;;;;;;;;;;5074506;28;19935;-91
2022/01/31 02:02:22;;;;;;;;;;;;;;;;;;5075034;28;19927;-90
2022/01/31 02:04:47;;;;;;;;;;;;;;;;;;5075072;28;19908;-91
2022/01/31 02:07:12;;;;;;;;;;;;;;;;;;5074611;28;19967;-90
2022/01/31 02:09:43;;;;;;;;;;;;;;;;;;5074283;28;20076;-91
2022/01/31 02:12:08;;;;;;;;;;;;;;;;;;5074913;28;19908;-91
2022/01/31 02:14:34;;;;;;;;;;;;;;;;;;5074789;28;19908;-91
2022/01/31 02:16:59;;;;;;;;;;;;;;;;;;5074735;28;19912;-90
2022/01/31 02:19:24;;;;;;;;;;;;;;;;;;5063320;28;19918;-89
2022/01/31 02:21:49;;;;;;;;;;;;;;;;;;5076033;28;19919;-89
2022/01/31 02:24:14;;;;;;;;;;;;;;;;;;5080052;28;19946;-90
2022/01/31 02:26:40;;;;;;;;;;;;;;;;;;5080056;28;20356;-90
2022/01/31 02:29:08;;;;;;;;;;;;;;;;;;5080233;28;19916;-90
2022/01/31 02:31:33;;;;;;;;;;;;;;;;;;5079754;28;20395;-91
2022/01/31 02:33:58;;;;;;;;;;;;;;;;;;5079707;28;20376;-90
2022/01/31 02:36:23;;;;;;;;;;;;;;;;;;5079608;28;19920;-90
2022/01/31 02:38:48;;;;;;;;;;;;;;;;;;5079737;28;19922;-90
2022/01/31 02:41:13;;;;;;;;;;;;;;;;;;5079485;28;19914;-90
2022/01/31 02:43:38;;;;;;;;;;;;;;;;;;5077118;28;19919;-90
2022/01/31 02:46:04;;;;;;;;;;;;;;;;;;5059366;28;19908;-90
2022/01/31 02:48:32;;;;;;;;;;;;;;;;;;5059546;28;20275;-90
2022/01/31 02:50:57;;;;;;;;;;;;;;;;;;5059508;28;19908;-90
2022/01/31 02:53:28;;;;;;;;;;;;;;;;;;5059565;28;19916;-90
2022/01/31 02:55:53;;;;;;;;;;;;;;;;;;5059666;28;19913;-91
2022/01/31 02:58:18;;;;;;;;;;;;;;;;;;5077185;28;20007;-91
2022/01/31 03:00:43;;;;;;;;;;;;;;;;;;5059396;28;19908;-90
2022/01/31 03:03:09;;;;;;;;;;;;;;;;;;5059334;28;19913;-90
2022/01/31 03:05:34;;;;;;;;;;;;;;;;;;5077816;28;19912;-90
2022/01/31 03:07:59;;;;;;;;;;;;;;;;;;5077660;28;19908;-91
2022/01/31 03:10:24;;;;;;;;;;;;;;;;;;5078159;28;19908;-91
2022/01/31 03:12:49;;;;;;;;;;;;;;;;;;5078086;28;19908;-91
2022/01/31 03:15:14;;;;;;;;;;;;;;;;;;5078074;28;19909;-90
2022/01/31 03:17:42;;;;;;;;;;;;;;;;;;5077511;28;20279;-90
2022/01/31 03:20:07;;;;;;;;;;;;;;;;;;5078074;28;19908;-91
2022/01/31 03:22:32;;;;;;;;;;;;;;;;;;5077745;28;19912;-91
2022/01/31 03:24:57;;;;;;;;;;;;;;;;;;5077819;28;19973;-91
2022/01/31 03:27:23;;;;;;;;;;;;;;;;;;5095772;28;20382;-91
2022/01/31 03:29:48;;;;;;;;;;;;;;;;;;5082170;28;20363;-91
2022/01/31 03:32:13;;;;;;;;;;;;;;;;;;5095360;28;19915;-90
2022/01/31 03:34:38;;;;;;;;;;;;;;;;;;5078697;28;19919;-91
2022/01/31 03:37:03;;;;;;;;;;;;;;;;;;5078571;28;19976;-91
2022/01/31 03:39:28;;;;;;;;;;;;;;;;;;5078791;28;19964;-91
2022/01/31 03:41:53;;;;;;;;;;;;;;;;;;5078667;28;19908;-91
2022/01/31 03:44:19;;;;;;;;;;;;;;;;;;5078652;28;20302;-91
2022/01/31 03:46:44;;;;;;;;;;;;;;;;;;5078454;28;19930;-91
2022/01/31 03:49:09;;;;;;;;;;;;;;;;;;5078344;28;19915;-91
2022/01/31 03:51:35;;;;;;;;;;;;;;;;;;5079568;28;19916;-91
2022/01/31 03:54:00;;;;;;;;;;;;;;;;;;5078439;28;20364;-90
2022/01/31 03:56:25;;;;;;;;;;;;;;;;;;5078154;28;19959;-91
2022/01/31 03:58:50;;;;;;;;;;;;;;;;;;5078084;28;19966;-91
2022/01/31 04:01:15;;;;;;;;;;;;;;;;;;5078499;28;19998;-91
2022/01/31 04:03:40;;;;;;;;;;;;;;;;;;5078067;28;19995;-91
2022/01/31 04:06:05;;;;;;;;;;;;;;;;;;5078062;28;20351;-91
2022/01/31 04:08:31;;;;;;;;;;;;;;;;;;5078191;28;20053;-91
2022/01/31 04:10:56;;;;;;;;;;;;;;;;;;5091021;28;19908;-90
2022/01/31 04:13:21;;;;;;;;;;;;;;;;;;5098201;28;19911;-91
2022/01/31 04:15:46;;;;;;;;;;;;;;;;;;5116150;28;19965;-91
2022/01/31 04:18:11;;;;;;;;;;;;;;;;;;5098580;28;19919;-91
2022/01/31 04:20:36;;;;;;;;;;;;;;;;;;5097686;28;19965;-91
2022/01/31 04:23:08;;;;;;;;;;;;;;;;;;5098035;28;20428;-91
2022/01/31 04:28:16;;;;;;;;;;;;;;;;;;5075984;28;19912;-90
2022/01/31 04:30:49;;;;;;;;;;;;;;;;;;5074472;28;19998;-91
2022/01/31 04:33:14;;;;;;;;;;;;;;;;;;5074330;28;19912;-90
2022/01/31 04:35:39;;;;;;;;;;;;;;;;;;5074062;28;19909;-91
2022/01/31 04:38:04;;;;;;;;;;;;;;;;;;5075063;28;19913;-91
2022/01/31 04:40:29;;;;;;;;;;;;;;;;;;5075156;28;19909;-91
2022/01/31 04:42:54;;;;;;;;;;;;;;;;;;5073612;28;20353;-91
2022/01/31 04:45:20;;;;;;;;;;;;;;;;;;5081049;28;19912;-91
2022/01/31 04:47:45;;;;;;;;;;;;;;;;;;5102343;28;20355;-91
2022/01/31 04:50:10;;;;;;;;;;;;;;;;;;5097646;28;19912;-90
2022/01/31 04:52:38;;;;;;;;;;;;;;;;;;5097615;28;19961;-91
2022/01/31 04:55:03;;;;;;;;;;;;;;;;;;5097628;28;19951;-91
2022/01/31 04:57:28;;;;;;;;;;;;;;;;;;5115357;28;19916;-90
2022/01/31 04:59:53;;;;;;;;;;;;;;;;;;5097155;28;19907;-91
2022/01/31 05:02:19;;;;;;;;;;;;;;;;;;5115611;28;19919;-91
2022/01/31 05:04:44;;;;;;;;;;;;;;;;;;5097508;28;19907;-90
2022/01/31 05:07:09;;;;;;;;;;;;;;;;;;5088492;28;19961;-91
2022/01/31 05:09:34;;;;;;;;;;;;;;;;;;5076815;28;19964;-91
2022/01/31 05:11:59;;;;;;;;;;;;;;;;;;5076913;28;20380;-91
2022/01/31 05:14:24;;;;;;;;;;;;;;;;;;5077019;28;19919;-91
2022/01/31 05:16:50;;;;;;;;;;;;;;;;;;5076354;28;19913;-91
2022/01/31 05:19:15;;;;;;;;;;;;;;;;;;5076879;28;19908;-91
2022/01/31 05:21:40;;;;;;;;;;;;;;;;;;5080032;28;19912;-90
2022/01/31 05:24:06;;;;;;;;;;;;;;;;;;5096930;28;19907;-91
2022/01/31 05:26:32;;;;;;;;;;;;;;;;;;5096762;28;19915;-90
2022/01/31 05:28:57;;;;;;;;;;;;;;;;;;5096589;28;19907;-91
2022/01/31 05:31:22;;;;;;;;;;;;;;;;;;5096648;28;19911;-90
2022/01/31 05:33:47;;;;;;;;;;;;;;;;;;5096798;28;19916;-90
2022/01/31 05:36:12;;;;;;;;;;;;;;;;;;5096660;28;19920;-91
2022/01/31 05:38:39;;;;;;;;;;;;;;;;;;5096543;28;19918;-91
2022/01/31 05:41:07;;;;;;;;;;;;;;;;;;5114797;28;20050;-90
2022/01/31 05:43:32;;;;;;;;;;;;;;;;;;5113099;28;19953;-91
2022/01/31 05:45:57;;;;;;;;;;;;;;;;;;5076380;28;19962;-90
2022/01/31 05:48:22;;;;;;;;;;;;;;;;;;5093971;28;19908;-91
2022/01/31 05:50:47;;;;;;;;;;;;;;;;;;5076130;28;19915;-91
2022/01/31 05:53:12;;;;;;;;;;;;;;;;;;5076332;28;19916;-90
2022/01/31 05:55:37;;;;;;;;;;;;;;;;;;5075579;28;19912;-90
2022/01/31 05:58:03;;;;;;;;;;;;;;;;;;5076287;28;19913;-90
2022/01/31 06:00:28;;;;;;;;;;;;;;;;;;5075835;28;19908;-91
2022/01/31 06:02:53;;;;;;;;;;;;;;;;;;5076142;28;19931;-90
2022/01/31 06:05:18;;;;;;;;;;;;;;;;;;5076200;28;19912;-90
2022/01/31 06:07:44;;;;;;;;;;;;;;;;;;5071563;28;19916;-91
2022/01/31 06:10:10;;;;;;;;;;;;;;;;;;5073821;28;19908;-91
2022/01/31 06:12:40;;;;;;;;;;;;;;;;;;5078530;28;19918;-91
2022/01/31 06:15:05;;;;;;;;;;;;;;;;;;5096434;28;19996;-90
2022/01/31 06:17:30;;;;;;;;;;;;;;;;;;5114093;28;19921;-91
2022/01/31 06:19:55;;;;;;;;;;;;;;;;;;5095773;28;20282;-91
2022/01/31 06:22:20;;;;;;;;;;;;;;;;;;5095953;28;20335;-91
2022/01/31 06:24:45;;;;;;;;;;;;;;;;;;5096011;28;19915;-91
2022/01/31 06:27:11;;;;;;;;;;;;;;;;;;5095922;28;19922;-91
2022/01/31 06:29:36;;;;;;;;;;;;;;;;;;5096003;28;19908;-90
2022/01/31 06:32:01;;;;;;;;;;;;;;;;;;5095965;28;19915;-91
2022/01/31 06:34:26;;;;;;;;;;;;;;;;;;5094376;28;19916;-89
2022/01/31 06:36:51;;;;;;;;;;;;;;;;;;5072097;28;20727;-90
2022/01/31 06:39:16;;;;;;;;;;;;;;;;;;5072010;28;19908;-90
2022/01/31 06:41:41;;;;;;;;;;;;;;;;;;5072324;28;19955;-90
2022/01/31 06:44:06;;;;;;;;;;;;;;;;;;5077536;28;19937;-90
2022/01/31 06:46:31;;;;;;;;;;;;;;;;;;5074978;28;19912;-90
2022/01/31 06:48:57;;;;;;;;;;;;;;;;;;5075364;28;19908;-91
2022/01/31 06:51:22;;;;;;;;;;;;;;;;;;5075714;28;19912;-91
2022/01/31 06:53:48;;;;;;;;;;;;;;;;;;5105775;28;20444;-91
2022/01/31 06:56:13;;;;;;;;;;;;;;;;;;5113866;28;20006;-90
2022/01/31 06:58:38;;;;;;;;;;;;;;;;;;5095758;28;19958;-90
2022/01/31 07:01:03;;;;;;;;;;;;;;;;;;5087252;28;20359;-91
2022/01/31 07:03:28;;;;;;;;;;;;;;;;;;5075624;28;20014;-91
2022/01/31 07:05:54;;;;;;;;;;;;;;;;;;5075728;28;20007;-91
2022/01/31 07:08:19;;;;;;;;;;;;;;;;;;5078888;28;19912;-91
2022/01/31 07:10:50;;;;;;;;;;;;;;;;;;5079239;28;20344;-91
2022/01/31 07:13:34;;;;;;;;;;;;;;;;;;5076739;28;19948;-91
2022/01/31 07:15:59;;;;;;;;;;;;;;;;;;5078590;28;19962;-91
2022/01/31 07:18:24;;;;;;;;;;;;;;;;;;5097370;28;19908;-93
2022/01/31 07:20:52;;;;;;;;;;;;;;;;;;5079428;28;19912;-92
2022/01/31 07:23:24;;;;;;;;;;;;;;;;;;5079114;28;19908;-93
2022/01/31 07:25:49;;;;;;;;;;;;;;;;;;5072246;28;19917;-93
2022/01/31 07:28:16;;;;;;;;;;;;;;;;;;5077189;28;19915;-93
2022/01/31 07:30:41;;;;;;;;;;;;;;;;;;5059142;28;19916;-93
2022/01/31 07:33:06;;;;;;;;;;;;;;;;;;5077901;28;20341;-92
2022/01/31 07:35:31;;;;;;;;;;;;;;;;;;5097113;28;19912;-93
2022/01/31 07:37:56;;;;;;;;;;;;;;;;;;5078841;28;20378;-93
2022/01/31 07:40:22;;;;;;;;;;;;;;;;;;5078958;28;19914;-92
2022/01/31 07:42:47;;;;;;;;;;;;;;;;;;5067314;28;20364;-93
2022/01/31 07:45:12;;;;;;;;;;;;;;;;;;5077534;28;19923;-93
2022/01/31 07:47:38;;;;;;;;;;;;;;;;;;5103113;28;19918;-92
2022/01/31 07:50:04;;;;;;;;;;;;;;;;;;5099127;28;19915;-93
2022/01/31 07:52:29;;;;;;;;;;;;;;;;;;5103469;28;19920;-93
2022/01/31 07:54:54;;;;;;;;;;;;;;;;;;5078925;28;19941;-93
2022/01/31 07:57:20;;;;;;;;;;;;;;;;;;5077966;28;20332;-93
2022/01/31 07:59:45;;;;;;;;;;;;;;;;;;5073877;28;19912;-92
2022/01/31 08:02:10;;;;;;;;;;;;;;;;;;5062351;28;20002;-92
2022/01/31 08:04:35;;;;;;;;;;;;;;;;;;5078597;28;19909;-92
2022/01/31 08:07:00;;;;;;;;;;;;;;;;;;5073807;28;19931;-92
2022/01/31 08:09:25;;;;;;;;;;;;;;;;;;5085426;28;19912;-92
2022/01/31 08:11:50;;;;;;;;;;;;;;;;;;5116546;28;19912;-93
2022/01/31 08:14:18;;;;;;;;;;;;;;;;;;5098375;28;19908;-92
2022/01/31 08:16:43;;;;;;;;;;;;;;;;;;5091928;28;19966;-93
2022/01/31 08:19:08;;;;;;;;;;;;;;;;;;5093658;28;19912;-92
2022/01/31 08:21:33;;;;;;;;;;;;;;;;;;5098454;28;19911;-93
2022/01/31 08:23:58;;;;;;;;;;;;;;;;;;5098711;28;19976;-93
2022/01/31 08:26:23;;;;;;;;;;;;;;;;;;5098471;28;19911;-93
2022/01/31 08:29:15;;;;;;;;;;;;;;;;;;5098198;28;19918;-90
2022/01/31 08:31:41;;;;;;;;;;;;;;;;;;5088576;28;19912;-87
2022/01/31 08:34:18;;;;;;;;;;;;;;;;;;5058439;28;20368;-90
2022/01/31 08:36:44;;;;;;;;;;;;;;;;;;5057911;28;19948;-91
2022/01/31 08:39:09;;;;;;;;;;;;;;;;;;5057908;28;19966;-90
2022/01/31 08:41:34;;;;;;;;;;;;;;;;;;5057746;28;19943;-90
2022/01/31 08:43:59;;;;;;;;;;;;;;;;;;5080785;28;19916;-91
2022/01/31 08:46:24;;;;;;;;;;;;;;;;;;5066806;28;19912;-91
2022/01/31 08:48:49;;;;;;;;;;;;;;;;;;5074325;28;19909;-91
2022/01/31 08:51:14;;;;;;;;;;;;;;;;;;5074512;28;19960;-91
2022/01/31 08:53:39;;;;;;;;;;;;;;;;;;5085215;28;19938;-91
2022/01/31 08:56:04;;;;;;;;;;;;;;;;;;5062605;28;19912;-91
2022/01/31 08:58:30;;;;;;;;;;;;;;;;;;5057764;28;20241;-91
2022/01/31 09:01:00;;;;;;;;;;;;;;;;;;5061755;28;19953;-90
2022/01/31 09:04:09;;;;;;;;;;;;;;;;;;5078009;28;19957;-91
2022/01/31 09:06:14;;;;;;;;;;;;;;;;;;5085538;28;19940;-91
2022/01/31 09:08:39;;;;;;;;;;;;;;;;;;5077814;28;20268;-91
2022/01/31 09:11:04;;;;;;;;;;;;;;;;;;5072403;28;19908;-91
2022/01/31 09:13:29;;;;;;;;;;;;;;;;;;5057110;28;20047;-91
2022/01/31 09:15:54;;;;;;;;;;;;;;;;;;5074029;28;20003;-91
2022/01/31 09:18:20;;;;;;;;;;;;;;;;;;5056449;28;19963;-90
2022/01/31 09:20:45;;;;;;;;;;;;;;;;;;5057927;28;20331;-90
2022/01/31 09:23:10;;;;;;;;;;;;;;;;;;5065597;28;19915;-89
2022/01/31 09:25:35;;;;;;;;;;;;;;;;;;5089729;28;19916;-89
2022/01/31 09:28:01;;;;;;;;;;;;;;;;;;5089705;28;19979;-89
2022/01/31 09:30:27;;;;;;;;;;;;;;;;;;5091980;28;19947;-88
2022/01/31 09:32:52;;;;;;;;;;;;;;;;;;5075908;28;20339;-87
2022/01/31 09:35:17;;;;;;;;;;;;;;;;;;5072319;28;19924;-88
2022/01/31 09:37:42;;;;;;;;;;;;;;;;;;5072344;28;20291;-84
2022/01/31 09:40:08;;;;;;;;;;;;;;;;;;5086464;28;20506;-88
2022/01/31 09:42:59;;;;;;;;;;;;;;;;;;5089458;28;19916;-88
2022/01/31 09:45:34;;;;;;;;;;;;;;;;;;5074291;28;20395;-89
2022/01/31 09:50:27;;;;;;;;;;;;;;;;;;5099353;28;19912;-88
2022/01/31 09:52:52;;;;;;;;;;;;;;;;;;5091754;28;19923;-88
2022/01/31 09:55:17;;;;;;;;;;;;;;;;;;5095981;28;19908;-88
2022/01/31 09:57:42;;;;;;;;;;;;;;;;;;5095569;28;19919;-88
2022/01/31 10:00:07;;;;;;;;;;;;;;;;;;5112642;28;19918;-88
2022/01/31 10:02:32;;;;;;;;;;;;;;;;;;5095937;28;19930;-88
2022/01/31 10:04:57;;;;;;;;;;;;;;;;;;5095974;28;20444;-88
2022/01/31 10:07:22;;;;;;;;;;;;;;;;;;5113388;28;19914;-87
2022/01/31 10:09:48;;;;;;;;;;;;;;;;;;5074161;28;19922;-88
2022/01/31 10:16:24;;;;;;;;;;;;;;;;;;5075583;28;19955;-88
2022/01/31 10:17:55;;;;;;;;;;;;;;;;;;5094174;28;20012;-88
2022/01/31 10:20:20;;;;;;;;;;;;;;;;;;5093585;28;19947;-88
2022/01/31 10:22:46;;;;;;;;;;;;;;;;;;5075595;28;20014;-88
2022/01/31 10:25:11;;;;;;;;;;;;;;;;;;5075378;28;19962;-88
2022/01/31 10:27:36;;;;;;;;;;;;;;;;;;5078652;28;19954;-89
2022/01/31 10:30:01;;;;;;;;;;;;;;;;;;5064326;28;19919;-89
2022/01/31 10:32:30;;;;;;;;;;;;;;;;;;5055292;28;19908;-88
2022/01/31 10:34:55;;;;;;;;;;;;;;;;;;5055232;28;19924;-88
2022/01/31 10:37:22;;;;;;;;;;;;;;;;;;5055237;28;19912;-88
2022/01/31 10:51:31;;;;;;;;;;;;;;;;;;5077268;28;19911;-88
2022/01/31 10:53:21;;;;;;;;;;;;;;;;;;5072975;28;20423;-89
2022/01/31 10:55:46;;;;;;;;;;;;;;;;;;5090504;28;20371;-88
2022/01/31 10:58:13;;;;;;;;;;;;;;;;;;5097184;28;20003;-89
2022/01/31 11:00:38;;;;;;;;;;;;;;;;;;5103784;28;19960;-88
2022/01/31 11:03:03;;;;;;;;;;;;;;;;;;5084178;28;19912;-88
2022/01/31 11:05:28;;;;;;;;;;;;;;;;;;5085130;28;20289;-87
2022/01/31 11:07:54;;;;;;;;;;;;;;;;;;5079412;28;19919;-89
2022/01/31 11:10:20;;;;;;;;;;;;;;;;;;5077712;28;19917;-88
2022/01/31 11:12:45;;;;;;;;;;;;;;;;;;5076583;28;20280;-88
2022/01/31 11:15:10;;;;;;;;;;;;;;;;;;5068610;28;19908;-89
2022/01/31 11:17:35;;;;;;;;;;;;;;;;;;5095955;28;19935;-89
2022/01/31 11:20:02;;;;;;;;;;;;;;;;;;5079472;28;19986;-89
2022/01/31 11:22:31;;;;;;;;;;;;;;;;;;5078605;28;19908;-90
2022/01/31 11:24:56;;;;;;;;;;;;;;;;;;5078475;28;19908;-89
2022/01/31 11:27:21;;;;;;;;;;;;;;;;;;5078381;28;20307;-89
2022/01/31 11:29:46;;;;;;;;;;;;;;;;;;5084511;28;20415;-89
2022/01/31 11:32:12;;;;;;;;;;;;;;;;;;5071375;28;19959;-89
2022/01/31 11:34:37;;;;;;;;;;;;;;;;;;5058370;28;19923;-89
2022/01/31 11:37:02;;;;;;;;;;;;;;;;;;5062611;28;19917;-87
2022/01/31 11:39:27;;;;;;;;;;;;;;;;;;5076087;28;19965;-89
2022/01/31 11:41:52;;;;;;;;;;;;;;;;;;5075980;28;19954;-89
2022/01/31 11:44:17;;;;;;;;;;;;;;;;;;5074680;28;19915;-89
2022/01/31 11:46:43;;;;;;;;;;;;;;;;;;5074432;28;19908;-90
2022/01/31 11:49:08;;;;;;;;;;;;;;;;;;5075763;28;19908;-89
2022/01/31 11:51:33;;;;;;;;;;;;;;;;;;5077471;28;19912;-89
2022/01/31 11:53:58;;;;;;;;;;;;;;;;;;5070502;28;19920;-89
2022/01/31 11:56:23;;;;;;;;;;;;;;;;;;5065985;28;20429;-89
2022/01/31 11:58:48;;;;;;;;;;;;;;;;;;5074510;28;19958;-90
2022/01/31 12:01:13;;;;;;;;;;;;;;;;;;5090314;28;19908;-89
2022/01/31 12:03:38;;;;;;;;;;;;;;;;;;5072627;28;19916;-89
2022/01/31 12:06:03;;;;;;;;;;;;;;;;;;5094734;28;19916;-89
2022/01/31 12:08:28;;;;;;;;;;;;;;;;;;5075495;28;20005;-90
2022/01/31 12:10:53;;;;;;;;;;;;;;;;;;5091213;28;19961;-89
2022/01/31 12:13:25;;;;;;;;;;;;;;;;;;5090440;28;19957;-89
2022/01/31 12:18:24;;;;;;;;;;;;;;;;;;5094451;28;20405;-90
2022/01/31 12:23:33;;;;;;;;;;;;;;;;;;5093624;28;20004;-89
2022/01/31 12:25:58;;;;;;;;;;;;;;;;;;5075260;28;19982;-90
2022/01/31 12:28:23;;;;;;;;;;;;;;;;;;5062128;28;20477;-90
2022/01/31 12:30:48;;;;;;;;;;;;;;;;;;5077058;28;20032;-91
2022/01/31 12:33:13;;;;;;;;;;;;;;;;;;5074948;28;20011;-91
2022/01/31 12:35:38;;;;;;;;;;;;;;;;;;5076898;28;20006;-91
2022/01/31 12:38:04;;;;;;;;;;;;;;;;;;5076559;28;19912;-90
2022/01/31 12:40:29;;;;;;;;;;;;;;;;;;5077120;28;20327;-90
2022/01/31 12:45:32;;;;;;;;;;;;;;;;;;5099071;28;19987;-90
2022/01/31 12:47:57;;;;;;;;;;;;;;;;;;5077086;28;19912;-90
2022/01/31 12:50:22;;;;;;;;;;;;;;;;;;5078772;28;19958;-90
2022/01/31 12:52:47;;;;;;;;;;;;;;;;;;5077218;28;20007;-90
2022/01/31 12:55:12;;;;;;;;;;;;;;;;;;5073828;28;20011;-90
2022/01/31 12:57:37;;;;;;;;;;;;;;;;;;5056960;28;19952;-90
2022/01/31 13:00:02;;;;;;;;;;;;;;;;;;5057082;28;20341;-90
2022/01/31 13:02:28;;;;;;;;;;;;;;;;;;5057066;28;19917;-90
2022/01/31 13:04:53;;;;;;;;;;;;;;;;;;5056615;28;19912;-90
2022/01/31 13:07:18;;;;;;;;;;;;;;;;;;5072272;28;19957;-89
2022/01/31 13:09:43;;;;;;;;;;;;;;;;;;5076947;28;20003;-90
2022/01/31 13:12:10;;;;;;;;;;;;;;;;;;5076923;28;19912;-90
2022/01/31 13:14:35;;;;;;;;;;;;;;;;;;5071411;28;20315;-90
2022/01/31 13:17:08;;;;;;;;;;;;;;;;;;5074398;28;19920;-91
2022/01/31 13:19:34;;;;;;;;;;;;;;;;;;5090537;28;19909;-91
2022/01/31 13:21:59;;;;;;;;;;;;;;;;;;5074542;28;20356;-91
2022/01/31 13:24:26;;;;;;;;;;;;;;;;;;5089868;28;19908;-90
2022/01/31 13:26:52;;;;;;;;;;;;;;;;;;5056825;28;19912;-90
2022/01/31 13:29:17;;;;;;;;;;;;;;;;;;5056727;28;19917;-90
2022/01/31 13:31:42;;;;;;;;;;;;;;;;;;5056423;28;19912;-90
2022/01/31 13:34:07;;;;;;;;;;;;;;;;;;5056420;28;20290;-90
2022/01/31 13:36:33;;;;;;;;;;;;;;;;;;5073231;28;20281;-90
2022/01/31 13:38:58;;;;;;;;;;;;;;;;;;5073310;28;19919;-90
2022/01/31 13:41:23;;;;;;;;;;;;;;;;;;5073125;28;19945;-90
2022/01/31 13:43:48;;;;;;;;;;;;;;;;;;5072898;28;19919;-91
2022/01/31 13:48:59;;;;;;;;;;;;;;;;;;5074415;28;19923;-91
2022/01/31 13:51:29;;;;;;;;;;;;;;;;;;5092820;28;19915;-90
2022/01/31 13:53:54;;;;;;;;;;;;;;;;;;5096661;28;20317;-91
2022/01/31 13:56:19;;;;;;;;;;;;;;;;;;5095055;28;20530;-91
2022/01/31 13:58:44;;;;;;;;;;;;;;;;;;5096493;28;19933;-91
2022/01/31 14:01:09;;;;;;;;;;;;;;;;;;5094783;28;19908;-91
2022/01/31 14:03:35;;;;;;;;;;;;;;;;;;5068102;28;19916;-91
2022/01/31 14:06:00;;;;;;;;;;;;;;;;;;5087330;28;19912;-91
2022/01/31 14:08:25;;;;;;;;;;;;;;;;;;5076328;28;19937;-91
2022/01/31 14:10:53;;;;;;;;;;;;;;;;;;5076342;28;20433;-91
2022/01/31 14:13:19;;;;;;;;;;;;;;;;;;5076151;28;20287;-91
2022/01/31 14:15:46;;;;;;;;;;;;;;;;;;5093932;28;20375;-91
2022/01/31 14:18:11;;;;;;;;;;;;;;;;;;5096962;28;19915;-91
2022/01/31 14:20:36;;;;;;;;;;;;;;;;;;5078828;28;19920;-91
2022/01/31 14:23:03;;;;;;;;;;;;;;;;;;5093226;28;19911;-91
2022/01/31 14:25:28;;;;;;;;;;;;;;;;;;5100328;28;19958;-91
2022/01/31 14:27:53;;;;;;;;;;;;;;;;;;5080547;28;19943;-90
2022/01/31 14:30:18;;;;;;;;;;;;;;;;;;5069590;28;19999;-90
2022/01/31 14:32:43;;;;;;;;;;;;;;;;;;5076650;28;19919;-91
2022/01/31 14:35:11;;;;;;;;;;;;;;;;;;5097915;28;19926;-91
2022/01/31 14:37:36;;;;;;;;;;;;;;;;;;5100143;28;19918;-90
2022/01/31 14:42:57;;;;;;;;;;;;;;;;;;5085488;28;20010;-91
2022/01/31 14:48:07;;;;;;;;;;;;;;;;;;5099224;28;20057;-91
2022/01/31 14:50:32;;;;;;;;;;;;;;;;;;5079844;28;20373;-91
2022/01/31 14:52:57;;;;;;;;;;;;;;;;;;5079796;28;19965;-91
2022/01/31 14:55:22;;;;;;;;;;;;;;;;;;5085494;28;19908;-91
2022/01/31 14:57:47;;;;;;;;;;;;;;;;;;5096805;28;19916;-91
2022/01/31 15:00:12;;;;;;;;;;;;;;;;;;5079504;28;19912;-91
2022/01/31 15:02:37;;;;;;;;;;;;;;;;;;5079581;28;19915;-91
2022/01/31 15:05:02;;;;;;;;;;;;;;;;;;5079145;28;19908;-90
2022/01/31 15:07:27;;;;;;;;;;;;;;;;;;5095313;28;19920;-91
2022/01/31 15:09:53;;;;;;;;;;;;;;;;;;5084736;28;20386;-91
2022/01/31 15:12:18;;;;;;;;;;;;;;;;;;5097427;28;19908;-92
2022/01/31 15:14:45;;;;;;;;;;;;;;;;;;5079505;28;19908;-92
2022/01/31 15:17:10;;;;;;;;;;;;;;;;;;5079654;28;19916;-92
2022/01/31 15:19:35;;;;;;;;;;;;;;;;;;5078991;28;19919;-91
2022/01/31 15:22:01;;;;;;;;;;;;;;;;;;5079394;28;19930;-91
2022/01/31 15:24:26;;;;;;;;;;;;;;;;;;5079115;28;20321;-92
2022/01/31 15:26:51;;;;;;;;;;;;;;;;;;5079250;28;19913;-92
2022/01/31 15:29:16;;;;;;;;;;;;;;;;;;5078908;28;19916;-92
2022/01/31 15:31:41;;;;;;;;;;;;;;;;;;5095026;28;20325;-91
2022/01/31 15:34:07;;;;;;;;;;;;;;;;;;5098558;28;19968;-91
2022/01/31 15:36:32;;;;;;;;;;;;;;;;;;5071131;28;20046;-91
2022/01/31 15:38:59;;;;;;;;;;;;;;;;;;5075592;28;19912;-91
2022/01/31 15:41:24;;;;;;;;;;;;;;;;;;5078550;28;20014;-91
2022/01/31 15:43:55;;;;;;;;;;;;;;;;;;5078838;28;19961;-91
2022/01/31 15:46:20;;;;;;;;;;;;;;;;;;5078685;28;19951;-91
2022/01/31 15:48:45;;;;;;;;;;;;;;;;;;5078497;28;19958;-91
2022/01/31 15:51:10;;;;;;;;;;;;;;;;;;5078611;28;19970;-91
2022/01/31 15:53:35;;;;;;;;;;;;;;;;;;5085431;28;20451;-91
2022/01/31 15:56:00;;;;;;;;;;;;;;;;;;5095164;28;20374;-90
2022/01/31 15:58:25;;;;;;;;;;;;;;;;;;5096574;28;19951;-90
2022/01/31 16:00:51;;;;;;;;;;;;;;;;;;5096399;28;20405;-90
2022/01/31 16:03:16;;;;;;;;;;;;;;;;;;5082683;28;19919;-90
2022/01/31 16:05:41;;;;;;;;;;;;;;;;;;5080779;28;20010;-90
2022/01/31 16:08:06;;;;;;;;;;;;;;;;;;5096111;28;20298;-91
2022/01/31 16:10:31;;;;;;;;;;;;;;;;;;5062368;28;19913;-91
2022/01/31 16:13:03;;;;;;;;;;;;;;;;;;5074544;28;19908;-90
2022/01/31 16:15:28;;;;;;;;;;;;;;;;;;5074951;28;20441;-90
2022/01/31 16:17:53;;;;;;;;;;;;;;;;;;5089841;28;20371;-89
2022/01/31 16:20:18;;;;;;;;;;;;;;;;;;5095814;28;19962;-90
2022/01/31 16:22:43;;;;;;;;;;;;;;;;;;5065364;28;19994;-90
2022/01/31 16:25:10;;;;;;;;;;;;;;;;;;5075468;28;19916;-91
2022/01/31 16:27:35;;;;;;;;;;;;;;;;;;5069522;28;19912;-90
2022/01/31 16:30:00;;;;;;;;;;;;;;;;;;5104065;28;20017;-91
2022/01/31 16:32:25;;;;;;;;;;;;;;;;;;5078197;28;20364;-91
2022/01/31 16:34:50;;;;;;;;;;;;;;;;;;5070075;28;19917;-91
2022/01/31 16:37:16;;;;;;;;;;;;;;;;;;5057453;28;19912;-91
2022/01/31 16:39:41;;;;;;;;;;;;;;;;;;5086063;28;19916;-91
2022/01/31 16:42:06;;;;;;;;;;;;;;;;;;5079642;28;19912;-91
2022/01/31 16:44:32;;;;;;;;;;;;;;;;;;5078453;28;19916;-90
2022/01/31 16:46:57;;;;;;;;;;;;;;;;;;5080616;28;19916;-89
2022/01/31 16:49:22;;;;;;;;;;;;;;;;;;5091286;28;19919;-91
2022/01/31 16:51:48;;;;;;;;;;;;;;;;;;5093823;28;19907;-91
2022/01/31 16:54:13;;;;;;;;;;;;;;;;;;5088361;28;19915;-90
2022/01/31 16:56:39;;;;;;;;;;;;;;;;;;5080306;28;19972;-90
2022/01/31 16:59:04;;;;;;;;;;;;;;;;;;5097364;28;19911;-91
2022/01/31 17:01:29;;;;;;;;;;;;;;;;;;5096768;28;19912;-92
2022/01/31 17:03:54;;;;;;;;;;;;;;;;;;5096744;28;19912;-91
2022/01/31 17:06:19;;;;;;;;;;;;;;;;;;5060358;28;20330;-91
2022/01/31 17:08:44;;;;;;;;;;;;;;;;;;5080437;28;19919;-91
2022/01/31 17:11:09;;;;;;;;;;;;;;;;;;5097451;28;19923;-91
2022/01/31 17:13:36;;;;;;;;;;;;;;;;;;5096801;28;19912;-91